Time;durP1;ratioP1;P1;durP2;ratioP2;P2;SDS_P1;SDS_P2;PMS_P1;PMS_P2;Temp;Humidity;BMP_temperature;BMP_pressure;BME280_temperature;BME280_humidity;BME280_pressure;Samples;Min_cycle;Max_cycle;Signal;HPM_P1;HPM_P2
2023/05/26 00:01:16;;;;;;;2.00;0.98;;;16.30;99.90;;;;;;5097437;28;20459;-59
2023/05/26 00:03:44;;;;;;;1.80;0.97;;;16.30;99.90;;;;;;5097345;28;20861;-58
2023/05/26 00:06:12;;;;;;;1.40;0.90;;;16.20;99.90;;;;;;5097789;28;20787;-59
2023/05/26 00:08:39;;;;;;;1.30;0.90;;;16.20;99.90;;;;;;5097303;28;20483;-58
2023/05/26 00:11:08;;;;;;;1.70;0.90;;;16.20;99.90;;;;;;5096818;28;20417;-58
2023/05/26 00:13:36;;;;;;;2.40;0.90;;;16.20;99.90;;;;;;5096918;28;20471;-58
2023/05/26 00:16:04;;;;;;;2.30;1.10;;;16.20;99.90;;;;;;5097475;28;20428;-58
2023/05/26 00:18:31;;;;;;;1.40;0.90;;;16.10;99.90;;;;;;5097111;28;20789;-58
2023/05/26 00:20:58;;;;;;;1.60;0.90;;;16.20;99.90;;;;;;5097174;28;20434;-58
2023/05/26 00:23:25;;;;;;;3.37;1.00;;;16.10;99.90;;;;;;5096926;28;20430;-57
2023/05/26 00:25:52;;;;;;;2.53;1.00;;;16.10;99.90;;;;;;5097069;28;20421;-58
2023/05/26 00:28:19;;;;;;;1.80;1.00;;;16.10;99.90;;;;;;5096679;28;20887;-57
2023/05/26 00:30:48;;;;;;;1.73;1.00;;;16.00;99.90;;;;;;5096766;28;20426;-60
2023/05/26 00:33:15;;;;;;;1.58;0.90;;;15.90;99.90;;;;;;5096939;28;20426;-59
2023/05/26 00:35:42;;;;;;;1.55;0.90;;;16.00;99.90;;;;;;5096809;28;20833;-58
2023/05/26 00:38:09;;;;;;;1.90;1.10;;;16.10;99.90;;;;;;5096580;28;20903;-59
2023/05/26 00:40:36;;;;;;;1.33;0.80;;;16.10;99.90;;;;;;5096497;28;20463;-61
2023/05/26 00:43:03;;;;;;;1.93;0.90;;;16.10;99.90;;;;;;5096867;28;20434;-60
2023/05/26 00:45:30;;;;;;;2.80;1.00;;;16.10;99.90;;;;;;5096383;28;20483;-59
2023/05/26 00:47:58;;;;;;;1.67;0.90;;;16.10;99.90;;;;;;5096335;28;20429;-57
2023/05/26 00:50:27;;;;;;;1.85;0.90;;;16.10;99.90;;;;;;5096483;28;20914;-58
2023/05/26 00:52:54;;;;;;;2.60;0.93;;;16.10;99.90;;;;;;5095951;28;20422;-57
2023/05/26 00:55:23;;;;;;;2.00;1.03;;;16.10;99.90;;;;;;5096662;28;20786;-58
2023/05/26 00:57:50;;;;;;;1.63;0.90;;;16.10;99.90;;;;;;5096436;28;20452;-58
2023/05/26 01:00:19;;;;;;;2.58;1.00;;;16.10;99.90;;;;;;5096494;28;20426;-58
2023/05/26 01:02:48;;;;;;;2.15;1.10;;;16.20;99.90;;;;;;5096096;28;20524;-57
2023/05/26 01:05:17;;;;;;;2.63;0.98;;;16.10;99.90;;;;;;5096033;28;20846;-57
2023/05/26 01:07:44;;;;;;;2.80;0.90;;;16.10;99.90;;;;;;5096272;28;20418;-57
2023/05/26 01:10:11;;;;;;;1.30;1.00;;;16.10;99.90;;;;;;5095643;28;20422;-58
2023/05/26 01:12:47;;;;;;;2.47;0.90;;;16.00;99.90;;;;;;5094838;28;21035;-57
2023/05/26 01:15:21;;;;;;;1.60;0.90;;;16.00;99.90;;;;;;5095989;28;20448;-58
2023/05/26 01:17:58;;;;;;;1.37;1.00;;;16.00;99.90;;;;;;5096206;28;20437;-57
2023/05/26 01:20:32;;;;;;;3.30;1.10;;;16.00;99.90;;;;;;5095965;28;20483;-58
2023/05/26 01:23:32;;;;;;;2.30;1.10;;;16.10;99.90;;;;;;5096003;28;20776;-58
2023/05/26 01:26:21;;;;;;;1.70;1.00;;;16.00;99.90;;;;;;5081218;28;20433;-58
2023/05/26 01:28:53;;;;;;;2.70;1.20;;;16.10;99.90;;;;;;5095603;28;20430;-58
2023/05/26 01:31:20;;;;;;;3.08;1.00;;;16.10;99.90;;;;;;5094388;28;20904;-58
2023/05/26 01:33:47;;;;;;;1.90;1.00;;;16.10;99.90;;;;;;5094326;28;20480;-58
2023/05/26 01:36:15;;;;;;;2.53;1.00;;;16.10;99.90;;;;;;5094199;28;20471;-57
2023/05/26 01:38:42;;;;;;;2.30;1.00;;;16.20;99.90;;;;;;5094319;28;20434;-57
2023/05/26 01:41:18;;;;;;;1.50;1.00;;;16.10;99.90;;;;;;5094310;28;20483;-57
2023/05/26 01:43:52;;;;;;;2.80;1.03;;;16.10;99.90;;;;;;5093784;28;20425;-58
2023/05/26 01:46:26;;;;;;;1.70;1.00;;;16.10;99.90;;;;;;5096047;28;20448;-58
2023/05/26 01:48:56;;;;;;;1.88;1.10;;;16.10;99.90;;;;;;5095845;28;20452;-59
2023/05/26 01:51:24;;;;;;;2.10;1.10;;;16.20;99.90;;;;;;5095671;28;20422;-59
2023/05/26 01:53:56;;;;;;;1.50;1.08;;;16.20;99.90;;;;;;5095158;28;20512;-59
2023/05/26 01:56:25;;;;;;;3.40;1.00;;;16.30;99.90;;;;;;5094063;28;20422;-59
2023/05/26 01:58:54;;;;;;;2.20;1.02;;;16.20;99.90;;;;;;5095569;28;20429;-59
2023/05/26 02:01:25;;;;;;;2.30;1.10;;;16.20;99.90;;;;;;5095649;28;20434;-58
2023/05/26 02:03:52;;;;;;;2.23;1.30;;;16.20;99.90;;;;;;5095307;28;20525;-59
2023/05/26 02:06:19;;;;;;;2.10;1.10;;;16.10;99.90;;;;;;5094418;28;20429;-59
2023/05/26 02:08:46;;;;;;;1.80;1.05;;;15.90;99.90;;;;;;5094966;28;20471;-57
2023/05/26 02:11:13;;;;;;;2.95;1.10;;;15.80;99.90;;;;;;5095165;28;20471;-58
2023/05/26 02:13:40;;;;;;;2.08;1.10;;;15.80;99.90;;;;;;5095309;28;20426;-57
2023/05/26 02:16:11;;;;;;;1.85;1.00;;;15.90;99.90;;;;;;5095298;28;20483;-57
2023/05/26 02:18:38;;;;;;;1.73;1.10;;;16.00;99.90;;;;;;5095253;28;20524;-58
2023/05/26 02:21:05;;;;;;;3.00;1.10;;;16.00;99.90;;;;;;5095279;28;20432;-58
2023/05/26 02:23:32;;;;;;;2.70;1.10;;;16.10;99.90;;;;;;5094708;28;20471;-58
2023/05/26 02:25:59;;;;;;;1.88;1.00;;;16.00;99.90;;;;;;5095362;28;20479;-58
2023/05/26 02:28:25;;;;;;;1.90;1.00;;;16.10;99.90;;;;;;5095105;28;20422;-58
2023/05/26 02:30:52;;;;;;;2.80;1.10;;;16.10;99.90;;;;;;5095089;28;20425;-58
2023/05/26 02:33:21;;;;;;;1.40;1.00;;;16.10;99.90;;;;;;5095165;28;20429;-58
2023/05/26 02:35:48;;;;;;;2.60;1.10;;;16.10;99.90;;;;;;5094574;28;20430;-58
2023/05/26 02:38:15;;;;;;;2.63;1.20;;;16.10;99.90;;;;;;5094802;28;20853;-58
2023/05/26 02:40:42;;;;;;;3.70;1.17;;;16.00;99.90;;;;;;5093740;28;20478;-58
2023/05/26 02:43:09;;;;;;;2.53;1.00;;;15.90;99.90;;;;;;5094676;28;20479;-58
2023/05/26 02:45:36;;;;;;;2.03;1.10;;;15.90;99.90;;;;;;5095040;28;20429;-58
2023/05/26 02:48:04;;;;;;;1.55;1.00;;;15.90;99.90;;;;;;5094958;28;20418;-57
2023/05/26 02:50:32;;;;;;;2.00;1.10;;;15.80;99.90;;;;;;5095114;28;20849;-57
2023/05/26 02:52:59;;;;;;;2.90;1.15;;;15.80;99.90;;;;;;5094508;28;20414;-57
2023/05/26 02:55:26;;;;;;;2.10;1.10;;;15.80;99.90;;;;;;5095047;28;20429;-57
2023/05/26 02:57:53;;;;;;;2.80;1.20;;;15.80;99.90;;;;;;5094482;28;20487;-57
2023/05/26 03:00:20;;;;;;;1.50;1.13;;;15.80;99.90;;;;;;5094712;28;20422;-58
2023/05/26 03:02:47;;;;;;;2.75;1.20;;;15.80;99.90;;;;;;5093995;28;20868;-58
2023/05/26 03:05:14;;;;;;;2.13;1.10;;;15.80;99.90;;;;;;5094516;28;20482;-58
2023/05/26 03:07:43;;;;;;;2.60;1.20;;;15.80;99.90;;;;;;5094941;28;20780;-58
2023/05/26 03:10:10;;;;;;;1.88;1.00;;;15.80;99.90;;;;;;5094762;28;20426;-58
2023/05/26 03:12:37;;;;;;;2.80;1.10;;;15.80;99.90;;;;;;5093367;28;20426;-58
2023/05/26 03:15:06;;;;;;;3.40;1.20;;;15.80;99.90;;;;;;5091897;28;20426;-58
2023/05/26 03:17:33;;;;;;;1.70;1.10;;;15.70;99.90;;;;;;5094817;28;20426;-58
2023/05/26 03:20:00;;;;;;;3.60;1.40;;;15.50;99.90;;;;;;5094724;28;20417;-59
2023/05/26 03:22:26;;;;;;;1.75;1.10;;;15.50;99.90;;;;;;5094683;28;20417;-59
2023/05/26 03:24:55;;;;;;;2.90;1.20;;;15.40;99.90;;;;;;5094677;28;20483;-59
2023/05/26 03:27:23;;;;;;;2.03;1.10;;;15.40;99.90;;;;;;5094861;28;20947;-59
2023/05/26 03:29:50;;;;;;;3.00;1.40;;;15.50;99.90;;;;;;5095569;28;20831;-59
2023/05/26 03:32:17;;;;;;;1.98;1.10;;;15.60;99.90;;;;;;5096819;28;20428;-59
2023/05/26 03:34:45;;;;;;;1.60;1.00;;;15.60;99.90;;;;;;5095899;28;20418;-58
2023/05/26 03:37:12;;;;;;;2.70;1.30;;;15.50;99.90;;;;;;5097193;28;20425;-58
2023/05/26 03:39:39;;;;;;;2.45;1.10;;;15.50;99.90;;;;;;5097859;28;20433;-59
2023/05/26 03:42:08;;;;;;;2.70;1.10;;;15.50;99.90;;;;;;5098175;28;20484;-58
2023/05/26 03:44:35;;;;;;;2.55;1.40;;;15.40;99.90;;;;;;5097293;28;20729;-59
2023/05/26 03:47:02;;;;;;;1.85;1.20;;;15.40;99.90;;;;;;5097650;28;20467;-58
2023/05/26 03:49:29;;;;;;;2.33;1.10;;;15.50;99.90;;;;;;5097813;28;20471;-58
2023/05/26 03:51:56;;;;;;;1.60;1.10;;;15.50;99.90;;;;;;5097039;28;20821;-58
2023/05/26 03:54:23;;;;;;;1.80;1.20;;;15.50;99.90;;;;;;5097430;28;20506;-59
2023/05/26 03:56:50;;;;;;;2.00;1.10;;;15.50;99.90;;;;;;5097410;28;20483;-58
2023/05/26 03:59:19;;;;;;;2.63;1.30;;;15.60;99.90;;;;;;5096568;28;20433;-58
2023/05/26 04:01:46;;;;;;;3.63;1.30;;;15.60;99.90;;;;;;5097398;28;20830;-59
2023/05/26 04:04:13;;;;;;;3.85;1.20;;;15.50;99.90;;;;;;5096920;28;20426;-59
2023/05/26 04:06:41;;;;;;;3.00;1.20;;;15.50;99.90;;;;;;5097125;28;20425;-58
2023/05/26 04:09:08;;;;;;;2.53;1.13;;;15.50;99.90;;;;;;5097030;28;20539;-58
2023/05/26 04:11:35;;;;;;;2.30;1.10;;;15.50;99.90;;;;;;5097302;28;20738;-57
2023/05/26 04:14:02;;;;;;;3.10;1.30;;;15.70;99.90;;;;;;5097490;28;20418;-57
2023/05/26 04:16:30;;;;;;;2.13;1.20;;;15.60;99.90;;;;;;5097482;28;20413;-58
2023/05/26 04:18:57;;;;;;;2.40;1.20;;;15.50;99.90;;;;;;5097094;28;20438;-59
2023/05/26 04:21:25;;;;;;;4.30;1.70;;;15.60;99.90;;;;;;5096396;28;20433;-58
2023/05/26 04:23:52;;;;;;;3.80;1.30;;;15.60;99.90;;;;;;5097160;28;20426;-59
2023/05/26 04:26:19;;;;;;;3.20;1.60;;;15.60;99.90;;;;;;5096393;28;20421;-59
2023/05/26 04:28:47;;;;;;;3.20;1.70;;;15.70;99.90;;;;;;5094476;28;20417;-59
2023/05/26 04:31:16;;;;;;;3.20;1.50;;;15.70;99.90;;;;;;5095694;28;20453;-59
2023/05/26 04:33:45;;;;;;;2.00;1.40;;;15.60;99.90;;;;;;5096710;28;20426;-59
2023/05/26 04:36:16;;;;;;;3.53;1.40;;;15.60;99.90;;;;;;5096491;28;20791;-59
2023/05/26 04:38:47;;;;;;;3.42;1.50;;;15.50;99.90;;;;;;5096374;28;20434;-59
2023/05/26 04:41:15;;;;;;;3.00;1.20;;;15.40;99.90;;;;;;5096894;28;20501;-59
2023/05/26 04:43:43;;;;;;;2.80;1.70;;;15.40;99.90;;;;;;5095110;28;20784;-60
2023/05/26 04:46:11;;;;;;;2.30;1.50;;;15.50;99.90;;;;;;5096155;28;20483;-59
2023/05/26 04:48:38;;;;;;;3.65;1.20;;;15.50;99.90;;;;;;5095116;28;20421;-60
2023/05/26 04:51:08;;;;;;;3.80;1.38;;;15.50;99.90;;;;;;5094092;28;20433;-60
2023/05/26 04:53:35;;;;;;;3.80;1.60;;;15.50;99.90;;;;;;5094723;28;20528;-60
2023/05/26 04:56:03;;;;;;;3.53;1.40;;;15.50;99.90;;;;;;5095308;28;20455;-60
2023/05/26 04:58:31;;;;;;;3.03;1.30;;;15.40;99.90;;;;;;5093494;28;20909;-59
2023/05/26 05:00:58;;;;;;;2.55;1.35;;;15.40;99.90;;;;;;5094789;28;20429;-60
2023/05/26 05:03:26;;;;;;;3.63;1.50;;;15.30;99.90;;;;;;5095117;28;20479;-58
2023/05/26 05:05:53;;;;;;;5.70;1.50;;;15.10;99.90;;;;;;5094313;28;20426;-59
2023/05/26 05:08:22;;;;;;;2.53;1.20;;;15.20;99.90;;;;;;5093858;28;20496;-59
2023/05/26 05:10:49;;;;;;;2.90;1.30;;;15.20;99.90;;;;;;5094975;28;20833;-59
2023/05/26 05:13:16;;;;;;;2.83;1.48;;;15.30;99.90;;;;;;5093816;28;20765;-59
2023/05/26 05:15:43;;;;;;;3.22;1.40;;;15.10;99.90;;;;;;5094432;28;20791;-59
2023/05/26 05:18:10;;;;;;;2.90;1.40;;;15.10;99.90;;;;;;5093521;28;20418;-59
2023/05/26 05:20:37;;;;;;;2.20;1.30;;;15.00;99.90;;;;;;5093220;28;20496;-59
2023/05/26 05:23:04;;;;;;;2.67;1.50;;;15.10;99.90;;;;;;5093566;28;20422;-59
2023/05/26 05:25:32;;;;;;;2.92;1.40;;;15.20;99.90;;;;;;5094789;28;20422;-59
2023/05/26 05:27:59;;;;;;;3.30;1.40;;;15.30;99.90;;;;;;5095135;28;20487;-59
2023/05/26 05:30:26;;;;;;;3.70;2.10;;;15.30;99.90;;;;;;5093321;28;20483;-61
2023/05/26 05:32:53;;;;;;;2.42;1.58;;;15.40;99.90;;;;;;5094347;28;20426;-59
2023/05/26 05:35:20;;;;;;;3.00;1.47;;;15.40;99.90;;;;;;5093775;28;20422;-60
2023/05/26 05:37:47;;;;;;;3.28;1.35;;;15.30;99.90;;;;;;5095111;28;20504;-59
2023/05/26 05:40:14;;;;;;;2.20;1.33;;;15.40;99.90;;;;;;5093010;28;20483;-60
2023/05/26 05:42:43;;;;;;;3.50;1.60;;;15.40;99.90;;;;;;5094552;28;20491;-60
2023/05/26 05:45:10;;;;;;;5.82;1.60;;;15.50;99.90;;;;;;5093056;28;20784;-60
2023/05/26 05:47:37;;;;;;;2.80;2.40;;;15.50;99.90;;;;;;5093090;28;20425;-60
2023/05/26 05:50:05;;;;;;;2.65;1.80;;;15.50;99.90;;;;;;5091107;28;20732;-60
2023/05/26 05:52:32;;;;;;;3.17;2.00;;;15.50;99.90;;;;;;5091140;28;20418;-60
2023/05/26 05:54:59;;;;;;;3.30;1.60;;;15.50;99.90;;;;;;5091884;28;20490;-63
2023/05/26 05:57:26;;;;;;;3.15;1.63;;;15.60;99.90;;;;;;5091011;28;20432;-60
2023/05/26 05:59:55;;;;;;;3.28;1.48;;;15.70;99.90;;;;;;5092922;28;20506;-60
2023/05/26 06:02:22;;;;;;;2.75;1.60;;;15.70;99.90;;;;;;5091606;28;20418;-59
2023/05/26 06:04:49;;;;;;;4.45;1.58;;;15.80;99.90;;;;;;5095187;28;20410;-60
2023/05/26 06:07:15;;;;;;;2.63;1.50;;;15.90;99.90;;;;;;5094903;28;20483;-60
2023/05/26 06:09:42;;;;;;;4.75;1.85;;;15.90;99.90;;;;;;5093437;28;20852;-60
2023/05/26 06:12:09;;;;;;;3.10;1.63;;;16.00;99.90;;;;;;5093700;28;20829;-59
2023/05/26 06:14:38;;;;;;;2.83;1.70;;;16.00;99.90;;;;;;5083264;28;20461;-60
2023/05/26 06:17:06;;;;;;;3.00;1.70;;;16.00;99.90;;;;;;5092482;28;20884;-59
2023/05/26 06:19:33;;;;;;;3.83;1.85;;;16.10;99.90;;;;;;5083049;28;20890;-59
2023/05/26 06:22:00;;;;;;;2.70;1.43;;;16.10;99.90;;;;;;5084929;28;20471;-59
2023/05/26 06:24:27;;;;;;;5.78;2.10;;;16.20;99.90;;;;;;5075566;28;20481;-59
2023/05/26 06:26:54;;;;;;;4.30;1.90;;;16.20;99.90;;;;;;5087890;28;20431;-60
2023/05/26 06:29:21;;;;;;;2.90;1.80;;;16.20;99.90;;;;;;5082092;28;20426;-58
2023/05/26 06:31:48;;;;;;;5.30;2.30;;;16.20;99.90;;;;;;5094082;28;20463;-58
2023/05/26 06:34:16;;;;;;;3.60;1.70;;;16.30;99.90;;;;;;5076883;28;20432;-57
2023/05/26 06:36:43;;;;;;;4.10;1.60;;;16.40;99.90;;;;;;5088340;28;20495;-57
2023/05/26 06:39:10;;;;;;;3.13;1.80;;;16.50;99.90;;;;;;5077472;28;20430;-56
2023/05/26 06:41:37;;;;;;;2.90;1.70;;;16.40;99.90;;;;;;5081530;28;20427;-55
2023/05/26 06:44:04;;;;;;;2.40;1.80;;;16.50;99.90;;;;;;5086811;28;20425;-55
2023/05/26 06:46:31;;;;;;;4.70;1.70;;;16.50;99.90;;;;;;5080800;28;20482;-55
2023/05/26 06:48:58;;;;;;;4.05;1.80;;;16.60;99.90;;;;;;5071327;28;20709;-54
2023/05/26 06:51:27;;;;;;;3.40;1.48;;;16.80;99.90;;;;;;5083353;28;20937;-57
2023/05/26 06:53:54;;;;;;;3.35;1.90;;;16.90;99.90;;;;;;5089187;28;20436;-56
2023/05/26 06:56:21;;;;;;;4.25;1.60;;;16.90;99.90;;;;;;5088949;28;20473;-55
2023/05/26 06:58:48;;;;;;;4.25;1.85;;;16.90;99.90;;;;;;5080598;28;20825;-52
2023/05/26 07:01:15;;;;;;;2.92;1.70;;;17.00;99.90;;;;;;5080869;28;20575;-54
2023/05/26 07:03:42;;;;;;;3.03;1.50;;;17.10;99.90;;;;;;5081506;28;20435;-56
2023/05/26 07:06:09;;;;;;;4.30;1.98;;;17.10;99.90;;;;;;5091450;28;20518;-54
2023/05/26 07:08:37;;;;;;;4.63;2.00;;;17.10;99.90;;;;;;5081146;28;20425;-56
2023/05/26 07:11:05;;;;;;;2.67;1.60;;;17.10;99.90;;;;;;5086534;28;20992;-57
2023/05/26 07:13:31;;;;;;;3.47;1.50;;;17.10;99.90;;;;;;5080990;28;20415;-53
2023/05/26 07:15:59;;;;;;;2.53;1.70;;;17.10;99.90;;;;;;5074377;28;20480;-57
2023/05/26 07:18:26;;;;;;;3.78;2.00;;;17.10;99.90;;;;;;5079697;28;20530;-53
2023/05/26 07:20:52;;;;;;;3.50;1.80;;;17.20;99.90;;;;;;5086471;28;20431;-53
2023/05/26 07:23:19;;;;;;;4.97;1.70;;;17.20;99.90;;;;;;5090271;28;20451;-56
2023/05/26 07:25:48;;;;;;;4.90;2.40;;;17.30;99.90;;;;;;5094868;28;20418;-53
2023/05/26 07:28:15;;;;;;;4.20;1.80;;;17.40;99.90;;;;;;5094615;28;20479;-53
2023/05/26 07:30:42;;;;;;;3.28;1.85;;;17.50;99.90;;;;;;5094484;28;20489;-56
2023/05/26 07:33:09;;;;;;;3.00;2.00;;;17.50;99.90;;;;;;5094480;28;20478;-56
2023/05/26 07:35:36;;;;;;;4.60;1.90;;;17.40;99.90;;;;;;5094925;28;20784;-54
2023/05/26 07:38:04;;;;;;;3.33;1.50;;;17.50;99.90;;;;;;5094178;28;20753;-54
2023/05/26 07:40:34;;;;;;;4.47;2.00;;;17.70;99.90;;;;;;5094875;28;20920;-55
2023/05/26 07:43:03;;;;;;;4.07;1.70;;;17.70;99.90;;;;;;5096639;28;20884;-55
2023/05/26 07:45:30;;;;;;;4.97;1.90;;;17.70;99.90;;;;;;5095439;28;20422;-54
2023/05/26 07:47:57;;;;;;;4.13;1.50;;;17.80;99.90;;;;;;5094212;28;20888;-54
2023/05/26 07:50:24;;;;;;;3.03;2.22;;;18.00;99.90;;;;;;5094562;28;20865;-57
2023/05/26 07:52:51;;;;;;;3.30;1.70;;;18.10;99.90;;;;;;5094513;28;20475;-55
2023/05/26 07:55:18;;;;;;;3.60;1.95;;;18.20;99.90;;;;;;5095341;28;20425;-56
2023/05/26 07:57:45;;;;;;;2.55;1.73;;;18.10;99.90;;;;;;5092868;28;20426;-56
2023/05/26 08:00:15;;;;;;;4.88;1.60;;;18.20;99.90;;;;;;5092894;28;20434;-59
2023/05/26 08:02:43;;;;;;;4.57;1.70;;;18.20;99.90;;;;;;5093109;28;20430;-59
2023/05/26 08:05:10;;;;;;;3.00;1.50;;;18.20;99.90;;;;;;5095683;28;20833;-60
2023/05/26 08:07:37;;;;;;;3.75;1.70;;;18.20;99.90;;;;;;5094834;28;20418;-59
2023/05/26 08:10:05;;;;;;;3.40;1.83;;;18.30;99.90;;;;;;5094422;28;20858;-59
2023/05/26 08:12:33;;;;;;;3.08;1.70;;;18.50;99.90;;;;;;5094760;28;20753;-60
2023/05/26 08:15:03;;;;;;;2.10;1.40;;;18.60;99.90;;;;;;5094975;28;20429;-60
2023/05/26 08:17:31;;;;;;;4.18;1.70;;;18.70;99.90;;;;;;5095826;28;20417;-60
2023/05/26 08:19:58;;;;;;;3.80;1.75;;;18.70;99.90;;;;;;5094199;28;20464;-60
2023/05/26 08:22:25;;;;;;;5.10;2.00;;;18.70;99.90;;;;;;5093310;28;20429;-60
2023/05/26 08:24:53;;;;;;;3.10;1.50;;;18.70;99.90;;;;;;5094518;28;20554;-58
2023/05/26 08:27:20;;;;;;;3.55;1.50;;;18.70;99.90;;;;;;5093592;28;20425;-59
2023/05/26 08:29:47;;;;;;;2.50;1.85;;;18.90;99.90;;;;;;5094358;28;20449;-58
2023/05/26 08:32:14;;;;;;;4.10;2.20;;;18.80;99.90;;;;;;5082482;28;20419;-59
2023/05/26 08:34:43;;;;;;;3.05;1.50;;;18.80;99.90;;;;;;5093146;28;20440;-60
2023/05/26 08:37:11;;;;;;;2.40;1.47;;;18.80;99.90;;;;;;5079348;28;20496;-59
2023/05/26 08:39:38;;;;;;;3.53;1.35;;;18.90;99.90;;;;;;5083540;28;20896;-58
2023/05/26 08:42:07;;;;;;;2.90;2.25;;;19.10;99.90;;;;;;5091286;28;20861;-57
2023/05/26 08:44:35;;;;;;;3.17;1.58;;;19.20;99.90;;;;;;5083767;28;20926;-62
2023/05/26 08:47:04;;;;;;;3.85;1.60;;;19.30;99.90;;;;;;5079359;28;20791;-59
2023/05/26 08:49:36;;;;;;;5.30;1.90;;;19.40;99.90;;;;;;5085386;28;20445;-59
2023/05/26 08:52:10;;;;;;;4.50;1.80;;;19.40;99.90;;;;;;5074279;28;20526;-59
2023/05/26 08:54:38;;;;;;;3.50;2.00;;;19.50;99.90;;;;;;5077216;28;20461;-59
2023/05/26 08:57:05;;;;;;;2.90;1.90;;;19.60;99.90;;;;;;5089080;28;20438;-59
2023/05/26 08:59:33;;;;;;;2.42;1.40;;;19.70;99.90;;;;;;5089254;28;20502;-58
2023/05/26 09:02:02;;;;;;;3.10;1.73;;;19.70;99.90;;;;;;5091672;28;21006;-58
2023/05/26 09:04:31;;;;;;;2.70;1.60;;;19.90;99.90;;;;;;5092379;28;20434;-60
2023/05/26 09:06:59;;;;;;;3.28;1.40;;;20.00;99.90;;;;;;5092141;28;20515;-58
2023/05/26 09:09:27;;;;;;;2.50;1.70;;;20.20;99.90;;;;;;5091258;28;20530;-59
2023/05/26 09:11:56;;;;;;;6.82;2.25;;;20.20;99.90;;;;;;5091234;28;20425;-59
2023/05/26 09:14:23;;;;;;;3.80;1.52;;;20.40;99.90;;;;;;5090624;28;20434;-59
2023/05/26 09:16:52;;;;;;;3.63;1.60;;;20.60;99.90;;;;;;5094175;28;20838;-59
2023/05/26 09:19:19;;;;;;;4.00;1.50;;;20.70;99.90;;;;;;5094753;28;20433;-60
2023/05/26 09:21:47;;;;;;;3.50;1.88;;;20.70;99.90;;;;;;5085488;28;20518;-60
2023/05/26 09:24:16;;;;;;;3.35;1.92;;;20.50;99.90;;;;;;5081901;28;20499;-60
2023/05/26 09:26:46;;;;;;;3.60;1.40;;;20.60;99.90;;;;;;5089517;28;20964;-59
2023/05/26 09:29:14;;;;;;;3.40;2.00;;;20.70;99.90;;;;;;5090964;28;20434;-59
2023/05/26 09:31:43;;;;;;;2.90;1.48;;;20.80;99.90;;;;;;5090211;28;20734;-59
2023/05/26 09:34:11;;;;;;;2.25;1.80;;;21.10;99.90;;;;;;5092509;28;20941;-60
2023/05/26 09:36:40;;;;;;;2.70;2.10;;;21.20;99.90;;;;;;5092255;28;20700;-61
2023/05/26 09:39:09;;;;;;;2.72;1.60;;;21.20;99.90;;;;;;5093429;28;20430;-59
2023/05/26 09:41:37;;;;;;;4.45;1.65;;;21.10;99.90;;;;;;5090034;28;20791;-59
2023/05/26 09:44:10;;;;;;;4.75;1.90;;;21.20;99.90;;;;;;5092786;28;20474;-59
2023/05/26 09:46:38;;;;;;;4.90;2.03;;;21.30;99.90;;;;;;5090797;28;20421;-59
2023/05/26 09:49:13;;;;;;;3.92;1.67;;;21.30;99.90;;;;;;5090796;28;20838;-59
2023/05/26 09:51:40;;;;;;;3.10;1.40;;;21.40;99.90;;;;;;5091851;28;20792;-59
2023/05/26 09:54:08;;;;;;;3.17;1.80;;;21.60;99.90;;;;;;5091475;28;20499;-60
2023/05/26 09:56:38;;;;;;;3.85;1.80;;;21.70;99.90;;;;;;5092905;28;20780;-60
2023/05/26 09:59:06;;;;;;;4.00;1.52;;;21.70;99.90;;;;;;5090485;28;20417;-60
2023/05/26 10:01:37;;;;;;;3.58;1.60;;;21.80;99.90;;;;;;5092608;28;20437;-60
2023/05/26 10:04:06;;;;;;;4.30;2.10;;;22.00;99.90;;;;;;5093160;28;20468;-60
2023/05/26 10:06:36;;;;;;;3.70;1.40;;;22.10;99.90;;;;;;5089693;28;20437;-60
2023/05/26 10:09:05;;;;;;;3.53;1.40;;;22.10;99.90;;;;;;5082318;28;20455;-60
2023/05/26 10:11:36;;;;;;;2.30;1.25;;;22.10;99.90;;;;;;5081398;28;20775;-59
2023/05/26 10:14:04;;;;;;;3.70;1.90;;;22.20;99.90;;;;;;5091068;28;20421;-59
2023/05/26 10:16:31;;;;;;;3.47;1.40;;;22.60;99.90;;;;;;5093427;28;20428;-60
2023/05/26 10:19:00;;;;;;;4.97;1.50;;;22.60;99.90;;;;;;5093764;28;20433;-60
2023/05/26 10:21:33;;;;;;;2.80;2.23;;;22.70;99.90;;;;;;5092358;28;20430;-60
2023/05/26 10:24:07;;;;;;;2.63;1.50;;;23.00;99.90;;;;;;5092379;28;20524;-60
2023/05/26 10:26:44;;;;;;;2.80;1.30;;;23.40;99.90;;;;;;5084090;28;20439;-59
2023/05/26 10:29:16;;;;;;;3.15;1.70;;;23.50;99.90;;;;;;5082993;28;20486;-60
2023/05/26 10:31:43;;;;;;;4.78;2.08;;;23.70;99.90;;;;;;5108872;28;20843;-60
2023/05/26 10:34:15;;;;;;;2.03;1.63;;;23.80;99.90;;;;;;5103920;28;20861;-60
2023/05/26 10:36:43;;;;;;;2.20;1.30;;;24.00;99.90;;;;;;5111616;28;20747;-61
2023/05/26 10:39:13;;;;;;;3.40;1.60;;;24.00;99.90;;;;;;5098278;28;20466;-59
2023/05/26 10:41:49;;;;;;;2.90;1.40;;;24.00;99.90;;;;;;5094635;28;20496;-60
2023/05/26 10:44:40;;;;;;;3.40;1.40;;;24.20;99.90;;;;;;5092616;28;20587;-60
2023/05/26 10:47:07;;;;;;;4.90;1.63;;;24.50;99.90;;;;;;5101161;28;20479;-60
2023/05/26 10:49:36;;;;;;;3.97;1.60;;;24.70;99.90;;;;;;5090028;28;20433;-60
2023/05/26 10:52:11;;;;;;;2.73;1.70;;;24.50;99.90;;;;;;5092794;28;20502;-59
2023/05/26 10:54:38;;;;;;;2.47;1.40;;;24.60;99.90;;;;;;5102907;28;20493;-61
2023/05/26 10:57:06;;;;;;;2.15;1.50;;;24.50;99.90;;;;;;5100090;28;20420;-61
2023/05/26 10:59:35;;;;;;;3.05;1.40;;;24.70;99.90;;;;;;5095206;28;20425;-61
2023/05/26 11:02:04;;;;;;;2.60;1.50;;;24.90;99.90;;;;;;5089956;28;20430;-61
2023/05/26 11:04:42;;;;;;;2.87;1.40;;;25.10;99.90;;;;;;5089877;28;20738;-60
2023/05/26 11:07:17;;;;;;;2.30;1.20;;;24.70;99.90;;;;;;5088967;28;20417;-60
2023/05/26 11:09:57;;;;;;;2.30;1.50;;;24.20;99.90;;;;;;5089181;28;20461;-60
2023/05/26 11:12:25;;;;;;;2.30;1.50;;;24.80;99.90;;;;;;5090451;28;20842;-61
2023/05/26 11:14:52;;;;;;;2.90;1.30;;;25.40;99.90;;;;;;5090445;28;20520;-60
2023/05/26 11:17:21;;;;;;;1.80;1.10;;;25.80;99.80;;;;;;5088195;28;20457;-61
2023/05/26 11:19:58;;;;;;;3.17;1.10;;;26.10;97.40;;;;;;5087929;28;20454;-62
2023/05/26 11:22:26;;;;;;;2.42;1.40;;;25.90;96.30;;;;;;5086954;28;20430;-60
2023/05/26 11:24:56;;;;;;;2.20;1.20;;;25.30;98.10;;;;;;5087877;28;20433;-61
2023/05/26 11:27:26;;;;;;;2.60;1.30;;;25.30;99.00;;;;;;5088559;28;20760;-60
2023/05/26 11:30:00;;;;;;;2.60;1.33;;;25.40;98.90;;;;;;5088220;28;20483;-63
2023/05/26 11:32:28;;;;;;;1.60;1.40;;;25.50;97.90;;;;;;5091427;28;20426;-62
2023/05/26 11:34:57;;;;;;;2.58;1.23;;;26.00;96.70;;;;;;5090972;28;20410;-62
2023/05/26 11:37:26;;;;;;;2.38;1.10;;;26.50;95.70;;;;;;5096481;28;20456;-61
2023/05/26 11:39:55;;;;;;;2.58;1.40;;;26.50;94.30;;;;;;5095609;28;20425;-63
2023/05/26 11:42:22;;;;;;;2.08;1.30;;;26.10;92.60;;;;;;5099709;28;20553;-62
2023/05/26 11:44:49;;;;;;;4.72;1.48;;;26.20;93.40;;;;;;5104444;28;20837;-61
2023/05/26 11:47:16;;;;;;;2.40;1.10;;;26.00;91.80;;;;;;5100299;28;20416;-61
2023/05/26 11:49:48;;;;;;;2.60;1.20;;;26.10;92.50;;;;;;5100874;28;20852;-62
2023/05/26 11:52:17;;;;;;;2.35;1.30;;;26.20;92.20;;;;;;5092537;28;20487;-60
2023/05/26 11:54:44;;;;;;;3.75;1.27;;;26.50;91.90;;;;;;5106942;28;20444;-62
2023/05/26 11:57:24;;;;;;;1.70;1.20;;;26.90;92.20;;;;;;5093819;28;20452;-60
2023/05/26 11:59:53;;;;;;;2.58;1.38;;;26.80;90.80;;;;;;5095346;28;20433;-62
2023/05/26 12:02:20;;;;;;;2.37;1.23;;;27.10;89.90;;;;;;5092070;28;20457;-62
2023/05/26 12:04:47;;;;;;;1.70;1.20;;;26.80;89.80;;;;;;5096639;28;20412;-60
2023/05/26 12:07:27;;;;;;;3.20;1.10;;;26.80;89.60;;;;;;5103615;28;20433;-60
2023/05/26 12:10:05;;;;;;;2.40;1.50;;;27.20;90.00;;;;;;5093534;28;20425;-61
2023/05/26 12:12:33;;;;;;;1.85;1.20;;;27.50;87.30;;;;;;5091990;28;20422;-60
2023/05/26 12:15:07;;;;;;;1.50;1.10;;;27.20;86.20;;;;;;5091380;28;20417;-61
2023/05/26 12:17:36;;;;;;;2.80;1.40;;;27.30;83.30;;;;;;5093111;28;20425;-61
2023/05/26 12:20:05;;;;;;;1.90;1.20;;;27.00;83.50;;;;;;5094321;28;20833;-60
2023/05/26 12:22:33;;;;;;;1.60;1.10;;;27.00;85.20;;;;;;5094215;28;20429;-61
2023/05/26 12:25:01;;;;;;;2.65;1.20;;;27.20;85.60;;;;;;5093270;28;20501;-60
2023/05/26 12:27:36;;;;;;;3.17;1.20;;;27.10;84.90;;;;;;5093941;28;20426;-60
2023/05/26 12:30:18;;;;;;;2.00;1.20;;;27.10;81.70;;;;;;5093610;28;20432;-59
2023/05/26 12:32:45;;;;;;;2.45;1.10;;;27.20;82.60;;;;;;5093681;28;20426;-60
2023/05/26 12:35:12;;;;;;;1.58;1.00;;;26.80;82.00;;;;;;5093758;28;20422;-60
2023/05/26 12:37:41;;;;;;;2.17;1.10;;;26.90;81.00;;;;;;5093258;28;20455;-60
2023/05/26 12:40:09;;;;;;;2.30;1.30;;;27.30;81.30;;;;;;5091691;28;20422;-58
2023/05/26 12:42:36;;;;;;;2.58;1.20;;;27.20;81.80;;;;;;5095477;28;20860;-58
2023/05/26 12:45:04;;;;;;;1.70;1.25;;;27.30;80.40;;;;;;5095895;28;20422;-60
2023/05/26 12:47:31;;;;;;;1.40;1.10;;;27.50;79.50;;;;;;5094675;28;20461;-60
2023/05/26 12:49:58;;;;;;;1.90;1.20;;;27.50;80.00;;;;;;5093445;28;20432;-60
2023/05/26 12:52:25;;;;;;;2.50;1.20;;;27.30;79.00;;;;;;5093265;28;20855;-60
2023/05/26 12:54:55;;;;;;;3.60;1.10;;;27.20;79.70;;;;;;5093038;28;20907;-60